Time;durP1;ratioP1;P1;durP2;ratioP2;P2;SDS_P1;SDS_P2;PMS_P1;PMS_P2;Temp;Humidity;BMP_temperature;BMP_pressure;BME280_temperature;BME280_humidity;BME280_pressure;Samples;Min_cycle;Max_cycle;Signal;HPM_P1;HPM_P2
2021/04/24 00:02:38;;;;;;;9.30;7.13;;;;;;;3.59;69.74;100345.66;5067573;28;20505;-80
2021/04/24 00:05:31;;;;;;;10.10;7.23;;;;;;;3.52;70.11;100349.91;5076031;28;20177;-80
2021/04/24 00:08:27;;;;;;;9.20;7.10;;;;;;;3.46;70.21;100347.88;5088284;28;20315;-79
2021/04/24 00:11:19;;;;;;;9.10;7.53;;;;;;;3.44;70.56;100350.69;5095706;23;20764;-80
2021/04/24 00:14:11;;;;;;;9.00;7.80;;;;;;;3.33;70.53;100342.16;5074161;28;20217;-80
2021/04/24 00:17:14;;;;;;;9.30;8.07;;;;;;;3.31;71.36;100338.88;5072622;28;20237;-79
2021/04/24 00:20:34;;;;;;;8.97;7.77;;;;;;;3.30;71.18;100340.69;5079119;22;20212;-79
2021/04/24 00:23:31;;;;;;;12.17;8.03;;;;;;;3.19;71.29;100325.03;5024581;28;20217;-79
2021/04/24 00:26:32;;;;;;;9.83;8.30;;;;;;;3.27;71.68;100338.31;5048001;28;20222;-80
2021/04/24 00:29:34;;;;;;;12.17;8.37;;;;;;;3.27;71.56;100346.25;5049137;28;20222;-79
2021/04/24 00:32:35;;;;;;;10.40;8.47;;;;;;;3.19;72.14;100332.97;5049283;28;20240;-80
2021/04/24 00:35:33;;;;;;;10.90;8.10;;;;;;;3.17;71.55;100328.84;5045831;28;20202;-80
2021/04/24 00:38:37;;;;;;;12.17;8.57;;;;;;;3.18;71.67;100336.59;5048672;28;20241;-79
2021/04/24 00:41:56;;;;;;;9.53;8.63;;;;;;;3.20;71.58;100336.47;5037170;28;20234;-80
2021/04/24 00:45:17;;;;;;;10.57;8.13;;;;;;;3.16;72.23;100337.75;5029796;28;20206;-82
2021/04/24 00:48:12;;;;;;;10.53;8.63;;;;;;;3.03;72.39;100311.69;5063992;23;20229;-80
2021/04/24 00:51:04;;;;;;;10.33;8.50;;;;;;;3.04;72.69;100321.28;5073993;28;20231;-79
2021/04/24 00:53:59;;;;;;;10.90;8.97;;;;;;;3.01;72.32;100316.31;5074243;28;20228;-79
2021/04/24 00:57:27;;;;;;;13.23;8.73;;;;;;;3.05;72.60;100330.88;5071752;28;20521;-82
2021/04/24 01:00:27;;;;;;;9.97;8.47;;;;;;;2.90;73.11;100320.03;5088958;28;20235;-79
2021/04/24 01:04:06;;;;;;;10.07;8.77;;;;;;;2.91;73.28;100324.34;5085504;28;20224;-80
2021/04/24 01:07:18;;;;;;;10.93;8.20;;;;;;;2.90;73.49;100322.66;5089245;28;20227;-81
2021/04/24 01:10:34;;;;;;;9.87;8.20;;;;;;;2.87;72.83;100322.16;5087704;28;20221;-81
2021/04/24 01:13:44;;;;;;;9.43;8.13;;;;;;;2.82;73.14;100317.31;5075590;28;20199;-82
2021/04/24 01:17:18;;;;;;;10.57;8.23;;;;;;;2.82;73.00;100327.91;5078456;28;20217;-81
2021/04/24 01:20:30;;;;;;;13.93;9.30;;;;;;;2.74;73.07;100319.06;5093908;22;20239;-81
2021/04/24 01:23:31;;;;;;;9.30;8.20;;;;;;;2.67;73.78;100329.41;5050447;28;20236;-81
2021/04/24 01:26:27;;;;;;;12.13;8.80;;;;;;;2.54;74.26;100313.94;5052321;28;20217;-81
2021/04/24 01:29:22;;;;;;;10.70;8.50;;;;;;;2.55;74.17;100315.59;5046925;28;20186;-81
2021/04/24 01:32:19;;;;;;;10.73;8.30;;;;;;;2.46;74.30;100308.59;5045674;28;20294;-81
2021/04/24 01:35:33;;;;;;;11.83;8.53;;;;;;;2.47;75.01;100315.50;5047385;28;20238;-81
2021/04/24 01:39:15;;;;;;;11.80;8.43;;;;;;;2.41;75.02;100312.66;5082808;28;20240;-81
2021/04/24 01:42:17;;;;;;;12.07;9.23;;;;;;;2.30;75.04;100291.72;5101737;28;20254;-81
2021/04/24 01:45:41;;;;;;;11.80;8.97;;;;;;;2.34;75.52;100299.19;5102639;28;20232;-82
2021/04/24 01:48:38;;;;;;;10.07;8.60;;;;;;;2.40;75.40;100300.41;5090330;28;20690;-81
2021/04/24 01:51:41;;;;;;;10.87;8.70;;;;;;;2.53;74.89;100303.50;5073242;28;20233;-81
2021/04/24 01:54:43;;;;;;;10.23;8.10;;;;;;;2.54;74.46;100308.66;5064213;28;20651;-81
2021/04/24 01:58:32;;;;;;;9.80;8.30;;;;;;;2.39;75.15;100307.50;5066052;28;20225;-80
2021/04/24 02:01:41;;;;;;;13.07;8.43;;;;;;;2.36;75.07;100304.34;5042940;23;20214;-82
2021/04/24 02:04:40;;;;;;;10.73;9.07;;;;;;;2.29;75.38;100313.88;5029347;28;20206;-81
2021/04/24 02:08:03;;;;;;;11.77;9.40;;;;;;;2.12;75.64;100289.88;5046424;28;20260;-81
2021/04/24 02:11:18;;;;;;;10.47;9.03;;;;;;;2.18;75.64;100306.97;5048256;28;20218;-81
2021/04/24 02:14:20;;;;;;;10.37;8.87;;;;;;;2.15;75.44;100310.72;5046306;28;20237;-81
2021/04/24 02:17:30;;;;;;;11.37;8.90;;;;;;;2.07;76.19;100307.19;5047843;28;20229;-81
2021/04/24 02:20:27;;;;;;;10.63;9.20;;;;;;;1.93;76.59;100289.19;5048584;28;20256;-81
2021/04/24 02:23:27;;;;;;;12.80;9.63;;;;;;;1.93;76.38;100295.28;5070108;22;20222;-82
2021/04/24 02:26:14;;;;;;;13.80;9.70;;;;;;;1.83;77.04;100289.22;5030288;28;20225;-80
2021/04/24 02:29:50;;;;;;;12.90;9.93;;;;;;;1.81;77.19;100288.56;5035507;28;20198;-81
2021/04/24 02:32:44;;;;;;;11.03;8.97;;;;;;;1.90;77.23;100302.69;5042053;28;20560;-81
2021/04/24 02:36:01;;;;;;;10.83;9.73;;;;;;;1.90;76.98;100305.34;5027509;28;20207;-81
2021/04/24 02:39:23;;;;;;;10.60;9.40;;;;;;;1.86;77.16;100302.16;5028624;28;20309;-82
2021/04/24 02:42:39;;;;;;;11.90;9.60;;;;;;;1.71;78.15;100285.13;5026891;28;20225;-81
2021/04/24 02:45:37;;;;;;;11.50;9.53;;;;;;;1.80;77.55;100300.09;5026735;28;20219;-82
2021/04/24 02:48:47;;;;;;;13.43;9.57;;;;;;;1.78;77.60;100291.47;5024438;28;20228;-81
2021/04/24 02:51:46;;;;;;;11.63;9.27;;;;;;;1.71;77.85;100278.03;5045926;28;20190;-81
2021/04/24 02:54:57;;;;;;;10.80;9.20;;;;;;;1.73;77.34;100288.44;5028130;28;20258;-81
2021/04/24 02:57:48;;;;;;;11.07;9.10;;;;;;;1.68;77.65;100283.59;5027709;28;20241;-81
2021/04/24 03:00:53;;;;;;;13.43;9.83;;;;;;;1.65;77.89;100283.91;5045876;28;20298;-82
2021/04/24 03:03:48;;;;;;;12.83;9.13;;;;;;;1.64;78.50;100279.59;5035838;28;20233;-81
2021/04/24 03:06:40;;;;;;;9.97;8.57;;;;;;;1.61;78.13;100277.25;5031650;28;20236;-81
2021/04/24 03:09:41;;;;;;;11.00;9.27;;;;;;;1.64;78.05;100284.88;5043787;22;20810;-81
2021/04/24 03:13:11;;;;;;;14.90;9.70;;;;;;;1.67;78.51;100291.69;5055358;28;20247;-82
2021/04/24 03:16:12;;;;;;;11.30;8.23;;;;;;;1.57;78.65;100282.97;5068241;28;20236;-81
2021/04/24 03:19:25;;;;;;;10.73;8.83;;;;;;;1.56;78.59;100290.06;5067701;28;20284;-81
2021/04/24 03:22:12;;;;;;;9.77;8.77;;;;;;;1.40;78.87;100273.19;5068342;28;20225;-82
2021/04/24 03:25:14;;;;;;;10.20;9.00;;;;;;;1.51;78.62;100291.47;5049885;28;20221;-81
2021/04/24 03:28:06;;;;;;;10.53;9.23;;;;;;;1.46;78.42;100283.16;5066240;28;20293;-81
2021/04/24 03:31:11;;;;;;;11.33;8.53;;;;;;;1.40;79.18;100284.56;5026365;28;20532;-81
2021/04/24 03:34:12;;;;;;;12.50;8.93;;;;;;;1.41;78.88;100288.88;5027171;28;20539;-82
2021/04/24 03:37:40;;;;;;;12.37;8.90;;;;;;;1.41;78.48;100295.97;5026699;28;20210;-81
2021/04/24 03:40:33;;;;;;;10.23;9.03;;;;;;;1.35;79.08;100286.84;5047531;28;20250;-82
2021/04/24 03:43:26;;;;;;;10.60;8.97;;;;;;;1.32;78.93;100306.41;5029494;28;20243;-81
2021/04/24 03:46:15;;;;;;;11.63;9.23;;;;;;;1.34;78.92;100295.72;5081116;23;20655;-81
2021/04/24 03:49:11;;;;;;;13.47;8.77;;;;;;;1.30;78.86;100292.53;5081015;28;20201;-81
2021/04/24 03:52:04;;;;;;;11.83;8.37;;;;;;;1.29;79.37;100282.97;5067980;28;20233;-81
2021/04/24 03:55:03;;;;;;;10.40;8.53;;;;;;;1.32;78.76;100289.75;5070604;28;20231;-81
2021/04/24 03:58:04;;;;;;;13.47;8.80;;;;;;;1.43;79.50;100302.78;5071129;28;20248;-82
2021/04/24 04:00:54;;;;;;;10.83;8.73;;;;;;;1.42;78.60;100300.28;5070340;28;20220;-81
2021/04/24 04:03:51;;;;;;;11.03;8.83;;;;;;;1.40;78.84;100283.75;5069715;28;20209;-82
2021/04/24 04:06:43;;;;;;;11.60;8.73;;;;;;;1.45;78.64;100289.41;5068453;28;20248;-81
2021/04/24 04:09:42;;;;;;;11.27;8.80;;;;;;;1.56;78.36;100297.16;5070630;28;20222;-84
2021/04/24 04:12:50;;;;;;;12.20;8.20;;;;;;;1.68;78.47;100301.28;5069413;28;20275;-81
2021/04/24 04:15:47;;;;;;;12.73;8.93;;;;;;;1.66;77.77;100295.31;5070888;28;20181;-82
2021/04/24 04:18:39;;;;;;;9.93;8.50;;;;;;;1.61;77.63;100287.81;5077110;22;20243;-81
2021/04/24 04:21:33;;;;;;;11.33;8.67;;;;;;;1.77;77.92;100292.47;5075874;22;20198;-81
2021/04/24 04:24:26;;;;;;;11.53;8.87;;;;;;;1.89;77.66;100303.66;5058941;28;20270;-81
2021/04/24 04:27:42;;;;;;;11.47;8.87;;;;;;;1.99;77.45;100293.88;5106644;28;20212;-81
2021/04/24 04:30:50;;;;;;;12.13;8.87;;;;;;;2.19;76.81;100296.22;5107483;28;20239;-82
2021/04/24 04:33:40;;;;;;;11.00;8.33;;;;;;;2.32;76.60;100289.75;5094087;28;20192;-81
2021/04/24 04:37:02;;;;;;;10.60;9.03;;;;;;;2.51;76.26;100290.44;5072867;28;20228;-81
2021/04/24 04:39:59;;;;;;;11.67;8.87;;;;;;;2.64;75.04;100285.59;5066426;28;20200;-81
2021/04/24 04:42:45;;;;;;;9.47;8.43;;;;;;;2.85;75.11;100295.00;5058834;23;20232;-81
2021/04/24 04:45:54;;;;;;;9.73;8.33;;;;;;;3.14;74.30;100298.19;5068913;28;20241;-81
2021/04/24 04:48:54;;;;;;;12.87;9.00;;;;;;;3.34;73.24;100307.59;5084931;28;20221;-81
2021/04/24 04:51:50;;;;;;;9.10;7.93;;;;;;;3.46;72.95;100289.59;5052369;28;20205;-81
2021/04/24 04:54:46;;;;;;;11.07;8.20;;;;;;;3.68;71.17;100288.22;5053097;28;20312;-81
2021/04/24 04:57:45;;;;;;;10.20;8.07;;;;;;;3.95;70.75;100299.44;5072021;28;20324;-81
2021/04/24 05:00:40;;;;;;;10.43;7.60;;;;;;;4.06;69.39;100286.88;5070774;28;20303;-83
2021/04/24 05:03:38;;;;;;;8.77;7.87;;;;;;;4.30;68.82;100286.91;5074997;28;20212;-81
2021/04/24 05:06:50;;;;;;;8.57;7.30;;;;;;;4.60;67.81;100307.50;5089647;28;20217;-82
2021/04/24 05:09:41;;;;;;;11.57;8.23;;;;;;;4.79;66.78;100301.88;5088445;28;20188;-82
2021/04/24 05:12:45;;;;;;;10.17;8.10;;;;;;;4.96;66.13;100300.03;5086060;28;20231;-82
2021/04/24 05:15:43;;;;;;;10.27;7.43;;;;;;;5.12;65.59;100300.03;5072809;28;20224;-81
2021/04/24 05:18:43;;;;;;;12.87;7.30;;;;;;;5.34;64.84;100306.47;5052070;28;20350;-82
2021/04/24 05:21:34;;;;;;;8.53;7.63;;;;;;;5.51;64.31;100316.03;5049005;28;20248;-82
2021/04/24 05:24:40;;;;;;;9.10;7.03;;;;;;;5.74;63.42;100319.63;4986267;28;20224;-83
2021/04/24 05:27:31;;;;;;;9.87;6.97;;;;;;;5.91;62.98;100304.47;4986804;28;20232;-81
2021/04/24 05:30:48;;;;;;;8.33;7.37;;;;;;;6.12;62.44;100322.50;4988780;28;20255;-82
2021/04/24 05:33:46;;;;;;;8.87;7.43;;;;;;;6.27;61.89;100317.25;5007002;28;20223;-80
2021/04/24 05:36:35;;;;;;;10.70;8.37;;;;;;;6.36;61.32;100305.56;4980236;28;20656;-80
2021/04/24 05:39:33;;;;;;;9.70;7.10;;;;;;;6.47;61.36;100283.88;4973562;28;20207;-79
2021/04/24 05:42:41;;;;;;;8.77;7.13;;;;;;;6.73;60.80;100300.31;5004037;28;20247;-81
2021/04/24 05:45:52;;;;;;;8.03;7.07;;;;;;;6.92;60.64;100289.16;4999631;28;20263;-81
2021/04/24 05:48:47;;;;;;;8.37;7.07;;;;;;;7.09;59.09;100296.00;5004483;28;20290;-80
2021/04/24 05:51:58;;;;;;;9.03;7.10;;;;;;;7.32;58.95;100295.97;4992102;28;20231;-82
2021/04/24 05:54:52;;;;;;;9.00;6.93;;;;;;;7.46;58.31;100291.63;4971520;28;20279;-80
2021/04/24 05:57:34;;;;;;;10.57;7.03;;;;;;;7.62;58.44;100302.13;4986333;28;20238;-81
2021/04/24 06:00:39;;;;;;;10.47;7.20;;;;;;;7.76;58.23;100279.94;4985062;28;20235;-81
2021/04/24 06:03:30;;;;;;;9.30;7.50;;;;;;;8.02;58.22;100287.47;4981340;28;20357;-80
2021/04/24 06:06:17;;;;;;;8.33;7.50;;;;;;;8.21;57.30;100286.03;4984027;28;20223;-80
2021/04/24 06:09:10;;;;;;;8.40;6.73;;;;;;;8.27;56.41;100261.22;5000197;28;20646;-80
2021/04/24 06:12:02;;;;;;;8.40;6.77;;;;;;;8.61;56.47;100288.13;4955929;28;20231;-79
2021/04/24 06:14:47;;;;;;;8.70;6.60;;;;;;;8.68;55.34;100280.97;4965669;28;20232;-81
2021/04/24 06:17:50;;;;;;;7.90;6.53;;;;;;;8.89;55.29;100282.00;4980120;28;20311;-79
2021/04/24 06:20:35;;;;;;;9.27;6.83;;;;;;;8.90;54.65;100263.09;4980856;28;20234;-80
2021/04/24 06:23:24;;;;;;;9.07;7.13;;;;;;;9.10;55.11;100274.75;4981458;28;20228;-83
2021/04/24 06:25:59;;;;;;;9.13;7.20;;;;;;;9.25;54.39;100266.63;4948495;28;20225;-82
2021/04/24 06:28:52;;;;;;;8.83;6.93;;;;;;;9.54;53.77;100285.16;4965242;28;20240;-79
2021/04/24 06:31:30;;;;;;;10.33;6.90;;;;;;;9.68;53.06;100286.88;4963236;28;20235;-80
2021/04/24 06:34:12;;;;;;;9.03;6.83;;;;;;;9.76;53.35;100271.66;4947700;28;20327;-81
2021/04/24 06:36:53;;;;;;;8.37;6.40;;;;;;;9.87;51.99;100269.25;4987620;28;20227;-80
2021/04/24 06:39:38;;;;;;;8.60;6.40;;;;;;;10.04;50.90;100267.06;5003293;28;20310;-79
2021/04/24 06:42:12;;;;;;;8.37;6.10;;;;;;;10.15;50.82;100267.34;4995063;28;20235;-82
2021/04/24 06:44:48;;;;;;;10.20;6.83;;;;;;;10.37;50.16;100267.19;4969526;28;20224;-82
2021/04/24 06:47:38;;;;;;;7.67;6.03;;;;;;;10.49;49.16;100258.38;4979406;28;20247;-80
2021/04/24 06:50:26;;;;;;;8.90;6.27;;;;;;;10.63;49.07;100256.53;4971043;28;20270;-80
2021/04/24 06:53:15;;;;;;;9.80;7.00;;;;;;;10.89;48.20;100266.41;4970699;28;20247;-80
2021/04/24 06:56:05;;;;;;;8.80;6.30;;;;;;;10.99;48.07;100253.44;4969753;28;20224;-81
2021/04/24 06:58:38;;;;;;;8.60;6.50;;;;;;;11.21;47.62;100259.38;5000348;28;20231;-82
2021/04/24 07:01:17;;;;;;;8.93;6.90;;;;;;;11.36;46.64;100251.94;5004495;28;20230;-81
2021/04/24 07:04:07;;;;;;;7.90;6.27;;;;;;;11.52;45.10;100251.50;4988317;28;20292;-82
2021/04/24 07:07:06;;;;;;;8.30;6.60;;;;;;;11.74;44.76;100241.34;4986991;28;20238;-81
2021/04/24 07:10:02;;;;;;;8.63;6.17;;;;;;;11.87;44.02;100254.72;4993571;28;20237;-81
2021/04/24 07:12:58;;;;;;;8.73;6.63;;;;;;;12.11;42.26;100243.25;5043176;28;20585;-80
2021/04/24 07:15:39;;;;;;;9.63;6.33;;;;;;;12.25;41.16;100239.44;5047877;28;20232;-81
2021/04/24 07:18:22;;;;;;;8.73;6.63;;;;;;;12.28;40.72;100227.44;5050554;28;20221;-78
2021/04/24 07:21:25;;;;;;;9.43;6.97;;;;;;;12.44;41.09;100234.16;5050264;28;20182;-79
2021/04/24 07:24:44;;;;;;;8.07;6.80;;;;;;;12.55;40.92;100230.78;5058644;22;20281;-79
2021/04/24 07:27:56;;;;;;;8.30;6.37;;;;;;;12.61;39.24;100236.09;5070284;28;20221;-79
2021/04/24 07:30:59;;;;;;;9.70;6.90;;;;;;;12.64;39.36;100211.50;5068681;28;20237;-79
2021/04/24 07:34:10;;;;;;;9.57;6.73;;;;;;;12.99;39.78;100235.16;5053274;28;20222;-79
2021/04/24 07:37:23;;;;;;;10.73;6.97;;;;;;;13.07;39.57;100227.63;5047967;28;20222;-79
2021/04/24 07:40:24;;;;;;;9.93;7.97;;;;;;;13.19;39.68;100234.00;5059967;22;20230;-76
2021/04/24 07:43:41;;;;;;;10.00;7.80;;;;;;;13.30;39.10;100227.03;5053927;28;20221;-76
2021/04/24 07:46:42;;;;;;;8.23;6.97;;;;;;;13.47;38.86;100232.66;5048732;28;20629;-76
2021/04/24 07:49:37;;;;;;;7.70;6.40;;;;;;;13.44;38.91;100233.09;5054316;28;20233;-76
2021/04/24 07:52:20;;;;;;;7.70;6.90;;;;;;;13.59;37.96;100225.47;4995584;28;20225;-77
2021/04/24 07:55:15;;;;;;;11.57;7.27;;;;;;;13.74;37.50;100230.50;5043593;28;20288;-77
2021/04/24 07:58:12;;;;;;;9.60;6.60;;;;;;;13.81;37.76;100223.16;5048118;28;20214;-76
2021/04/24 08:00:53;;;;;;;11.20;6.43;;;;;;;13.85;37.35;100224.34;5044811;28;20225;-76
2021/04/24 08:03:57;;;;;;;7.30;6.47;;;;;;;14.04;38.13;100224.06;5044517;28;20217;-76
2021/04/24 08:06:42;;;;;;;9.33;6.90;;;;;;;14.27;37.83;100217.97;5042285;28;20234;-76
2021/04/24 08:09:26;;;;;;;9.53;7.47;;;;;;;14.37;37.72;100207.47;5042000;28;20245;-77
2021/04/24 08:12:15;;;;;;;9.00;6.63;;;;;;;14.45;37.13;100217.94;5042426;28;20246;-76
2021/04/24 08:15:26;;;;;;;8.57;6.70;;;;;;;14.53;36.55;100214.09;5048747;22;20223;-76
2021/04/24 08:18:38;;;;;;;8.50;6.90;;;;;;;14.44;36.67;100204.69;5028789;28;20238;-77
2021/04/24 08:21:48;;;;;;;11.13;6.80;;;;;;;14.43;36.80;100208.44;5026466;28;20183;-80
2021/04/24 08:24:52;;;;;;;7.27;6.43;;;;;;;14.57;36.45;100212.56;5040623;28;20227;-81
2021/04/24 08:27:49;;;;;;;10.07;5.77;;;;;;;14.57;35.78;100191.00;5042099;28;20222;-83
2021/04/24 08:30:58;;;;;;;8.57;6.57;;;;;;;14.63;36.32;100189.25;5026027;28;20228;-77
2021/04/24 08:34:24;;;;;;;7.93;6.67;;;;;;;14.89;36.60;100205.81;5077550;23;20233;-76
2021/04/24 08:37:15;;;;;;;9.50;6.80;;;;;;;14.93;35.73;100204.28;5063920;28;20237;-78
2021/04/24 08:40:02;;;;;;;9.23;6.37;;;;;;;14.94;35.85;100194.31;5061214;28;20241;-78
2021/04/24 08:42:52;;;;;;;9.93;6.63;;;;;;;14.99;35.58;100197.97;5009187;28;20252;-79
2021/04/24 08:45:34;;;;;;;8.00;5.83;;;;;;;15.12;35.86;100196.88;5074640;28;20227;-83
2021/04/24 08:48:16;;;;;;;8.87;6.53;;;;;;;15.24;35.46;100192.31;5048475;28;20241;-83
2021/04/24 08:51:00;;;;;;;9.10;6.93;;;;;;;15.36;36.05;100184.19;5031525;28;20957;-80
2021/04/24 08:53:59;;;;;;;11.67;7.00;;;;;;;15.56;35.25;100192.78;5043731;28;20219;-80
2021/04/24 08:56:57;;;;;;;7.13;5.90;;;;;;;15.39;33.82;100189.97;5060643;28;20641;-78
2021/04/24 08:59:49;;;;;;;8.93;6.27;;;;;;;15.31;34.64;100181.38;5048714;28;20214;-77
2021/04/24 09:02:28;;;;;;;8.43;6.23;;;;;;;15.36;34.71;100179.63;5043981;28;20245;-78
2021/04/24 09:05:21;;;;;;;8.60;6.83;;;;;;;15.13;34.66;100181.53;5029851;28;20275;-81
2021/04/24 09:08:03;;;;;;;9.33;7.00;;;;;;;15.39;34.54;100168.38;5032206;28;20217;-78
2021/04/24 09:10:46;;;;;;;9.23;7.60;;;;;;;15.77;35.21;100181.31;5030849;28;20249;-79
2021/04/24 09:13:23;;;;;;;8.07;6.67;;;;;;;15.95;34.00;100179.50;5031670;28;20499;-80
2021/04/24 09:16:07;;;;;;;10.23;6.93;;;;;;;16.00;33.63;100168.78;5031719;28;20209;-79
2021/04/24 09:19:01;;;;;;;8.83;6.80;;;;;;;16.13;33.97;100157.69;5028153;28;20234;-80
2021/04/24 09:21:47;;;;;;;9.73;6.70;;;;;;;15.58;33.44;100155.56;5029920;28;20630;-80
2021/04/24 09:24:43;;;;;;;10.03;6.70;;;;;;;15.39;35.79;100160.28;5039386;28;20573;-77
2021/04/24 09:27:47;;;;;;;10.47;6.37;;;;;;;16.11;33.39;100151.69;5038627;28;20637;-78
2021/04/24 09:30:32;;;;;;;8.60;6.83;;;;;;;16.40;32.81;100164.09;5048353;28;20207;-83
2021/04/24 09:33:22;;;;;;;8.80;7.17;;;;;;;16.55;31.53;100152.72;5046494;28;20608;-77
2021/04/24 09:36:09;;;;;;;8.83;6.77;;;;;;;16.78;31.64;100149.06;5056209;28;20221;-81
2021/04/24 09:38:49;;;;;;;10.30;6.83;;;;;;;16.81;31.29;100141.25;5054215;28;20235;-79
2021/04/24 09:41:30;;;;;;;8.70;6.43;;;;;;;16.79;31.91;100146.09;5042568;28;20232;-80
2021/04/24 09:44:15;;;;;;;7.13;6.40;;;;;;;16.58;31.07;100127.91;5037738;28;20235;-81
2021/04/24 09:46:59;;;;;;;7.37;6.20;;;;;;;16.67;31.84;100131.84;5037917;28;20223;-78
2021/04/24 09:49:44;;;;;;;8.90;6.73;;;;;;;16.86;31.36;100135.09;5057048;28;20220;-80
2021/04/24 09:52:43;;;;;;;7.27;6.30;;;;;;;16.84;31.03;100127.25;5074095;28;20236;-80
2021/04/24 09:55:38;;;;;;;8.57;6.20;;;;;;;17.09;31.78;100122.16;5055947;28;20309;-80
2021/04/24 09:58:38;;;;;;;8.50;6.60;;;;;;;16.98;30.91;100114.97;5047396;28;20535;-77
2021/04/24 10:01:29;;;;;;;8.53;5.83;;;;;;;16.59;32.20;100111.44;5052670;28;20224;-81
2021/04/24 10:04:26;;;;;;;11.70;6.30;;;;;;;17.07;32.18;100112.69;5049533;28;20226;-80
2021/04/24 10:07:20;;;;;;;10.33;6.33;;;;;;;17.04;31.20;100105.84;5050643;28;20252;-81
2021/04/24 10:10:15;;;;;;;9.80;6.30;;;;;;;16.45;31.41;100090.34;5041170;28;20227;-79
2021/04/24 10:13:13;;;;;;;8.43;5.80;;;;;;;16.47;31.78;100099.03;5058064;28;20222;-79
2021/04/24 10:16:00;;;;;;;7.90;6.07;;;;;;;16.52;31.28;100090.97;5052123;28;20229;-77
2021/04/24 10:18:48;;;;;;;7.30;6.57;;;;;;;16.14;32.08;100084.44;5063093;28;20221;-78
2021/04/24 10:21:35;;;;;;;8.60;6.60;;;;;;;16.76;32.31;100084.34;5054509;28;20251;-82
2021/04/24 10:24:20;;;;;;;6.80;6.00;;;;;;;17.06;31.52;100075.84;5061860;28;20230;-78
2021/04/24 10:27:12;;;;;;;7.87;6.23;;;;;;;17.34;31.15;100083.78;5044479;28;20302;-79
2021/04/24 10:30:06;;;;;;;9.17;6.27;;;;;;;17.25;30.42;100071.75;5046850;28;20232;-78
2021/04/24 10:32:56;;;;;;;8.50;7.00;;;;;;;17.56;30.24;100071.03;5077166;28;20229;-79
2021/04/24 10:35:49;;;;;;;8.47;6.20;;;;;;;17.77;29.77;100057.72;5041026;28;20338;-78
2021/04/24 10:38:45;;;;;;;8.83;6.00;;;;;;;17.96;29.85;100057.06;5026338;28;20278;-79
2021/04/24 10:41:50;;;;;;;8.73;6.37;;;;;;;17.55;30.71;100055.84;5036326;28;20217;-78
2021/04/24 10:44:56;;;;;;;7.27;5.77;;;;;;;17.59;30.92;100039.91;5048893;28;20229;-77
2021/04/24 10:47:58;;;;;;;8.87;5.77;;;;;;;17.82;30.39;100046.94;5043142;28;20636;-80
2021/04/24 10:50:53;;;;;;;10.90;6.30;;;;;;;18.03;29.24;100032.47;5032040;28;20293;-77
2021/04/24 10:53:50;;;;;;;9.10;6.30;;;;;;;18.12;30.02;100033.63;5046060;28;20233;-78
2021/04/24 10:56:32;;;;;;;7.73;6.10;;;;;;;18.01;29.73;100021.06;5041324;28;20264;-78
2021/04/24 10:59:32;;;;;;;8.30;5.97;;;;;;;18.53;29.11;100033.91;5046492;28;20230;-78
2021/04/24 11:02:16;;;;;;;8.27;5.70;;;;;;;18.60;28.75;100019.09;5032079;28;20221;-78
2021/04/24 11:05:01;;;;;;;8.40;6.63;;;;;;;18.74;28.10;100008.56;5043426;28;20220;-81
2021/04/24 11:07:52;;;;;;;10.33;5.90;;;;;;;19.05;28.64;100017.66;5043038;28;20252;-79
2021/04/24 11:10:48;;;;;;;9.23;6.37;;;;;;;19.26;27.78;100011.25;5072336;28;20229;-79
2021/04/24 11:13:31;;;;;;;11.33;6.33;;;;;;;19.40;27.41;100000.69;5057377;28;20232;-78
2021/04/24 11:16:19;;;;;;;9.23;6.13;;;;;;;18.89;27.96;100011.38;5027948;28;20224;-78
2021/04/24 11:19:03;;;;;;;8.37;5.90;;;;;;;19.00;28.18;99996.75;5045665;28;20542;-79
2021/04/24 11:21:44;;;;;;;6.63;5.47;;;;;;;19.15;28.31;100004.13;5052980;28;20229;-79
2021/04/24 11:24:26;;;;;;;8.53;5.97;;;;;;;18.81;28.28;99998.28;5040285;28;20225;-78
2021/04/24 11:27:02;;;;;;;7.33;5.70;;;;;;;18.79;28.60;99990.44;5032932;28;20228;-79
2021/04/24 11:29:44;;;;;;;8.33;6.00;;;;;;;18.68;27.53;99990.63;5044410;28;20228;-78
2021/04/24 11:32:33;;;;;;;7.73;5.50;;;;;;;18.93;28.21;99990.75;5041823;28;20249;-79
2021/04/24 11:35:27;;;;;;;8.10;5.87;;;;;;;18.96;29.00;99992.94;5025950;28;20531;-78
2021/04/24 11:38:20;;;;;;;7.90;6.30;;;;;;;18.90;28.26;99989.38;5022872;28;20229;-78
2021/04/24 11:41:31;;;;;;;9.93;5.97;;;;;;;19.44;27.73;99983.59;5042684;28;20230;-80
2021/04/24 11:44:28;;;;;;;6.80;5.47;;;;;;;19.55;27.01;99981.72;5038392;28;20221;-77
2021/04/24 11:47:41;;;;;;;8.93;6.40;;;;;;;19.74;26.67;99982.81;5064856;28;20227;-80
2021/04/24 11:50:44;;;;;;;6.60;5.90;;;;;;;19.69;25.98;99971.97;5058257;28;20231;-80
2021/04/24 11:53:46;;;;;;;8.70;5.87;;;;;;;19.33;26.78;99971.03;5041315;28;20856;-77
2021/04/24 11:56:46;;;;;;;8.87;6.10;;;;;;;19.68;26.43;99962.97;5026651;28;20651;-79
2021/04/24 11:59:46;;;;;;;11.23;5.97;;;;;;;19.81;26.64;99950.75;5045579;28;20307;-79
2021/04/24 12:02:37;;;;;;;8.33;6.30;;;;;;;19.76;27.01;99953.47;5055955;28;20225;-78
2021/04/24 12:05:20;;;;;;;11.73;7.13;;;;;;;20.12;26.90;99962.41;5046606;28;20229;-79
2021/04/24 12:07:52;;;;;;;9.90;6.83;;;;;;;20.18;26.47;99962.13;5047909;28;20218;-80
2021/04/24 12:10:31;;;;;;;8.43;6.93;;;;;;;20.32;26.17;99953.44;5026986;28;20278;-78
2021/04/24 12:13:13;;;;;;;9.03;6.40;;;;;;;20.50;26.09;99940.03;5039992;28;20230;-80
2021/04/24 12:16:05;;;;;;;9.27;6.10;;;;;;;20.52;26.00;99950.66;5041919;28;20304;-78
2021/04/24 12:18:58;;;;;;;8.70;5.87;;;;;;;20.53;26.04;99949.59;5040766;28;20588;-78
2021/04/24 12:21:44;;;;;;;9.97;6.00;;;;;;;20.73;26.40;99937.78;5041080;28;20314;-77
2021/04/24 12:24:53;;;;;;;7.40;6.37;;;;;;;20.90;25.26;99939.06;5055079;28;20230;-78
2021/04/24 12:27:41;;;;;;;7.40;6.23;;;;;;;20.67;25.81;99930.75;5025906;28;20219;-78
2021/04/24 12:30:24;;;;;;;9.20;6.47;;;;;;;20.77;27.02;99927.97;5038357;28;20267;-80
2021/04/24 12:33:18;;;;;;;9.87;6.73;;;;;;;20.65;26.04;99922.84;5013859;28;20233;-79
2021/04/24 12:36:15;;;;;;;10.27;6.57;;;;;;;20.39;25.77;99915.88;5054569;28;20623;-78
2021/04/24 12:39:04;;;;;;;8.93;5.80;;;;;;;20.69;25.64;99906.75;5055164;28;20582;-77
2021/04/24 12:41:59;;;;;;;10.70;6.87;;;;;;;20.72;25.54;99914.41;5044386;28;20233;-79
2021/04/24 12:44:53;;;;;;;8.53;6.33;;;;;;;20.63;25.10;99900.53;5053321;28;20230;-79
2021/04/24 12:47:44;;;;;;;8.50;6.57;;;;;;;20.79;24.93;99909.44;5056480;28;20309;-78
2021/04/24 12:50:44;;;;;;;9.03;6.40;;;;;;;20.73;26.10;99900.47;5074547;28;20229;-81
2021/04/24 12:53:48;;;;;;;9.10;6.40;;;;;;;20.98;25.41;99889.47;5064763;28;20217;-79
2021/04/24 12:56:43;;;;;;;7.77;6.67;;;;;;;20.89;25.05;99879.44;5040596;28;20229;-79
2021/04/24 12:59:32;;;;;;;7.77;6.27;;;;;;;20.70;25.27;99892.88;5041701;28;20229;-78
2021/04/24 13:02:42;;;;;;;11.27;7.47;;;;;;;20.45;25.58;99882.91;5075002;28;20266;-81
2021/04/24 13:05:43;;;;;;;9.13;6.90;;;;;;;20.69;25.31;99876.81;5040487;28;20677;-82
2021/04/24 13:08:33;;;;;;;8.13;6.87;;;;;;;20.81;25.50;99871.88;5061579;28;20587;-78
2021/04/24 13:11:41;;;;;;;7.90;6.53;;;;;;;20.88;24.52;99869.63;5074389;28;20222;-79
2021/04/24 13:14:41;;;;;;;7.70;6.67;;;;;;;20.98;24.58;99864.94;5058557;28;20241;-79
2021/04/24 13:17:34;;;;;;;9.70;6.33;;;;;;;20.56;24.51;99859.19;5040414;28;20225;-79
2021/04/24 13:20:31;;;;;;;7.40;5.87;;;;;;;20.50;25.22;99863.03;5054141;28;20267;-77
2021/04/24 13:23:24;;;;;;;8.33;6.20;;;;;;;20.60;26.20;99854.81;5059032;28;20217;-81
2021/04/24 13:26:30;;;;;;;7.80;5.93;;;;;;;20.63;25.96;99843.34;5073618;28;20628;-78
2021/04/24 13:29:27;;;;;;;8.60;5.43;;;;;;;20.70;26.22;99859.41;5062413;28;20226;-78
2021/04/24 13:32:23;;;;;;;8.63;6.10;;;;;;;20.46;26.39;99843.72;5053839;28;20227;-78
2021/04/24 13:35:18;;;;;;;8.70;6.00;;;;;;;20.64;26.02;99834.09;5044374;28;20310;-77
2021/04/24 13:38:13;;;;;;;7.33;5.97;;;;;;;20.59;26.81;99826.78;5059687;28;20313;-78
2021/04/24 13:41:22;;;;;;;7.60;5.80;;;;;;;20.77;25.95;99827.22;5041214;28;20226;-81
2021/04/24 13:44:14;;;;;;;9.13;6.27;;;;;;;20.88;25.93;99815.16;5030624;28;20282;-78
2021/04/24 13:47:22;;;;;;;8.47;6.53;;;;;;;20.96;25.52;99818.09;5071972;28;20225;-79